Time;durP1;ratioP1;P1;durP2;ratioP2;P2;SDS_P1;SDS_P2;PMS_P1;PMS_P2;Temp;Humidity;BMP_temperature;BMP_pressure;BME280_temperature;BME280_humidity;BME280_pressure;Samples;Min_cycle;Max_cycle;Signal;HPM_P1;HPM_P2
2023/08/24 00:01:26;;;;;;;1999.90;999.90;;;21.00;99.90;;;;;;5051759;28;20175;-71
2023/08/24 00:03:52;;;;;;;1999.90;999.90;;;21.00;99.90;;;;;;5051976;28;20799;-72
2023/08/24 00:06:18;;;;;;;1999.90;999.90;;;20.90;99.90;;;;;;5052101;28;20172;-70
2023/08/24 00:08:44;;;;;;;1999.90;999.90;;;20.80;99.90;;;;;;5054370;28;20509;-72
2023/08/24 00:11:14;;;;;;;1999.90;999.90;;;20.70;99.90;;;;;;5054558;28;20752;-70
2023/08/24 00:13:41;;;;;;;1999.90;999.90;;;20.70;99.90;;;;;;5044708;28;20479;-71
2023/08/24 00:16:07;;;;;;;1999.90;999.90;;;20.70;99.90;;;;;;5035904;28;20377;-71
2023/08/24 00:18:33;;;;;;;1999.90;999.90;;;20.70;99.90;;;;;;5035966;28;20402;-70
2023/08/24 00:20:58;;;;;;;1999.90;999.90;;;20.50;99.90;;;;;;5035683;28;20470;-70
2023/08/24 00:23:25;;;;;;;1999.90;999.90;;;20.40;99.90;;;;;;5035791;28;20195;-70
2023/08/24 00:25:50;;;;;;;1999.90;999.90;;;20.30;99.90;;;;;;5035897;28;20209;-70
2023/08/24 00:28:16;;;;;;;1999.90;999.90;;;20.30;99.90;;;;;;5035675;28;20416;-70
2023/08/24 00:30:41;;;;;;;1999.90;999.90;;;20.30;99.90;;;;;;5035720;28;20577;-71
2023/08/24 00:33:07;;;;;;;1999.90;999.90;;;20.20;99.90;;;;;;5035419;28;20667;-71
2023/08/24 00:35:32;;;;;;;1999.90;999.90;;;20.30;99.90;;;;;;5050939;28;20173;-72
2023/08/24 00:37:58;;;;;;;1999.90;999.90;;;20.20;99.90;;;;;;5035683;28;20225;-69
2023/08/24 00:40:24;;;;;;;1999.90;999.90;;;20.10;99.90;;;;;;5035548;28;20174;-72
2023/08/24 00:42:50;;;;;;;1999.90;999.90;;;20.10;99.90;;;;;;5050660;28;20204;-72
2023/08/24 00:45:16;;;;;;;1999.90;999.90;;;20.10;99.90;;;;;;5035479;28;20404;-71
2023/08/24 00:47:44;;;;;;;1999.90;999.90;;;20.10;99.90;;;;;;5035530;28;20178;-71
2023/08/24 00:50:10;;;;;;;1999.90;999.90;;;20.10;99.90;;;;;;5035442;28;20316;-70
2023/08/24 00:52:39;;;;;;;1999.90;999.90;;;20.10;99.90;;;;;;5034778;28;20834;-71
2023/08/24 00:55:05;;;;;;;1999.90;999.90;;;20.10;99.90;;;;;;5035307;28;20405;-70
2023/08/24 00:57:31;;;;;;;1999.90;999.90;;;20.20;99.90;;;;;;5035357;28;20824;-70
2023/08/24 01:00:01;;;;;;;1999.90;999.90;;;20.20;99.90;;;;;;5035269;28;20439;-69
2023/08/24 01:02:27;;;;;;;1999.90;999.90;;;20.20;99.90;;;;;;5034709;28;20571;-71
2023/08/24 01:04:53;;;;;;;1999.90;999.90;;;20.20;99.90;;;;;;5035148;28;20413;-72
2023/08/24 01:07:19;;;;;;;1999.90;999.90;;;20.20;99.90;;;;;;5034880;28;20178;-71
2023/08/24 01:09:45;;;;;;;1999.90;999.90;;;20.20;99.90;;;;;;5034982;28;20461;-70
2023/08/24 01:12:25;;;;;;;1999.90;999.90;;;19.80;99.90;;;;;;5034732;28;20174;-70
2023/08/24 01:15:07;;;;;;;1999.90;999.90;;;20.10;99.90;;;;;;5035083;28;21016;-72
2023/08/24 01:17:35;;;;;;;1999.90;999.90;;;20.10;99.90;;;;;;5034846;28;20459;-70
2023/08/24 01:20:04;;;;;;;1999.90;999.90;;;20.00;99.90;;;;;;5034855;28;20779;-71
2023/08/24 01:23:08;;;;;;;1999.90;999.90;;;20.10;99.90;;;;;;5050020;28;20446;-72
2023/08/24 01:25:52;;;;;;;1999.90;999.90;;;20.00;99.90;;;;;;5033706;28;20522;-70
2023/08/24 01:28:22;;;;;;;1999.90;999.90;;;20.10;99.90;;;;;;5034700;28;20406;-70
2023/08/24 01:30:48;;;;;;;1999.90;999.90;;;20.00;99.90;;;;;;5034570;28;20801;-71
2023/08/24 01:33:14;;;;;;;1999.90;999.90;;;20.00;99.90;;;;;;5034350;28;20436;-71
2023/08/24 01:35:41;;;;;;;1999.90;999.90;;;19.90;99.90;;;;;;5034646;28;20169;-72
2023/08/24 01:38:07;;;;;;;1999.90;999.90;;;20.00;99.90;;;;;;5034501;28;20462;-70
2023/08/24 01:40:39;;;;;;;1999.90;999.90;;;19.90;99.90;;;;;;5034529;28;20889;-71
2023/08/24 01:43:09;;;;;;;1999.90;999.90;;;19.90;99.90;;;;;;5033895;28;20432;-69
2023/08/24 01:45:35;;;;;;;1999.90;999.90;;;19.90;99.90;;;;;;5034282;28;20409;-71
2023/08/24 01:48:03;;;;;;;1999.90;999.90;;;19.90;99.90;;;;;;5034289;28;20411;-71
2023/08/24 01:50:30;;;;;;;1999.90;999.90;;;19.80;99.90;;;;;;5033969;28;20330;-69
2023/08/24 01:52:56;;;;;;;1999.90;999.90;;;19.80;99.90;;;;;;5033623;28;20429;-70
2023/08/24 01:55:22;;;;;;;1999.90;999.90;;;19.80;99.90;;;;;;5034152;28;20383;-70
2023/08/24 01:57:49;;;;;;;1999.90;999.90;;;19.80;99.90;;;;;;5033875;28;20181;-70
2023/08/24 02:00:15;;;;;;;1999.90;999.90;;;19.80;99.90;;;;;;5033928;28;20516;-70
2023/08/24 02:02:42;;;;;;;1999.90;999.90;;;19.80;99.90;;;;;;5033499;28;20505;-71
2023/08/24 02:05:08;;;;;;;1999.90;999.90;;;19.80;99.90;;;;;;5034087;28;20414;-69
2023/08/24 02:07:33;;;;;;;1999.90;999.90;;;19.80;99.90;;;;;;5033750;28;20408;-70
2023/08/24 02:09:59;;;;;;;1999.90;999.90;;;19.80;99.90;;;;;;5033764;28;20726;-70
2023/08/24 02:12:25;;;;;;;1999.90;999.90;;;19.90;99.90;;;;;;5033394;28;20185;-69
2023/08/24 02:14:50;;;;;;;1999.90;999.90;;;19.90;99.90;;;;;;5033706;28;20246;-71
2023/08/24 02:17:16;;;;;;;1999.90;999.90;;;19.90;99.90;;;;;;5033585;28;20202;-70
2023/08/24 02:19:41;;;;;;;1999.90;999.90;;;19.90;99.90;;;;;;5033569;28;20231;-70
2023/08/24 02:22:08;;;;;;;1999.90;999.90;;;19.90;99.90;;;;;;5033222;28;20741;-71
2023/08/24 02:24:33;;;;;;;1999.90;999.90;;;20.00;99.90;;;;;;5033396;28;20170;-69
2023/08/24 02:26:59;;;;;;;1999.90;999.90;;;20.00;99.90;;;;;;5048803;28;20783;-71
2023/08/24 02:29:25;;;;;;;1999.90;999.90;;;20.00;99.90;;;;;;5033429;28;20545;-71
2023/08/24 02:31:51;;;;;;;1999.90;999.90;;;20.00;99.90;;;;;;5032665;28;20415;-70
2023/08/24 02:34:17;;;;;;;1999.90;999.90;;;20.00;99.90;;;;;;5033517;28;20240;-70
2023/08/24 02:36:42;;;;;;;1999.90;999.90;;;20.00;99.90;;;;;;5033059;28;20384;-71
2023/08/24 02:39:08;;;;;;;1999.90;999.90;;;20.00;99.90;;;;;;5033197;28;20174;-71
2023/08/24 02:41:34;;;;;;;1999.90;999.90;;;20.10;99.90;;;;;;5033005;28;20174;-70
2023/08/24 02:44:00;;;;;;;1999.90;999.90;;;20.10;99.90;;;;;;5033135;28;20216;-69
2023/08/24 02:46:26;;;;;;;1999.90;999.90;;;20.10;99.90;;;;;;5033103;28;20771;-71
2023/08/24 02:48:51;;;;;;;1999.90;999.90;;;20.20;99.90;;;;;;5032956;28;20416;-69
2023/08/24 02:51:17;;;;;;;1999.90;999.90;;;20.20;99.90;;;;;;5031396;28;20846;-70
2023/08/24 02:53:43;;;;;;;1999.90;999.90;;;20.20;99.90;;;;;;5032810;28;20185;-71
2023/08/24 02:56:08;;;;;;;1999.90;999.90;;;20.30;99.90;;;;;;5032906;28;20531;-69
2023/08/24 02:58:34;;;;;;;1999.90;999.90;;;20.30;99.90;;;;;;5032851;28;20634;-71
2023/08/24 03:01:07;;;;;;;1999.90;999.90;;;20.30;99.90;;;;;;5032573;28;20171;-72
2023/08/24 03:03:33;;;;;;;1999.90;999.90;;;20.30;99.90;;;;;;5069313;22;20229;-76
2023/08/24 03:06:04;;;;;;;1999.90;999.90;;;20.20;99.90;;;;;;5019964;28;20910;-75
2023/08/24 03:08:31;;;;;;;1999.90;999.90;;;20.20;99.90;;;;;;5012876;28;20982;-76
2023/08/24 03:10:58;;;;;;;1999.90;999.90;;;20.20;99.90;;;;;;5012296;28;20429;-76
2023/08/24 03:13:24;;;;;;;1999.90;999.90;;;20.20;99.90;;;;;;5012638;28;20522;-77
2023/08/24 03:15:49;;;;;;;1999.90;999.90;;;20.20;99.90;;;;;;5012553;28;20413;-76
2023/08/24 03:18:16;;;;;;;1999.90;999.90;;;20.20;99.90;;;;;;5007072;28;20538;-76
2023/08/24 03:20:43;;;;;;;1999.90;999.90;;;20.20;99.90;;;;;;4992799;28;20209;-76
2023/08/24 03:23:09;;;;;;;1999.90;999.90;;;20.30;99.90;;;;;;4998808;28;20442;-76
2023/08/24 03:25:39;;;;;;;1999.90;999.90;;;20.20;99.90;;;;;;5004281;28;20401;-76
2023/08/24 03:28:06;;;;;;;1999.90;999.90;;;20.20;99.90;;;;;;4992930;28;20168;-76
2023/08/24 03:30:32;;;;;;;1999.90;999.90;;;20.10;99.90;;;;;;4992801;28;20539;-76
2023/08/24 03:32:59;;;;;;;1999.90;999.90;;;20.10;99.90;;;;;;4992475;28;20442;-77
2023/08/24 03:35:24;;;;;;;1999.90;999.90;;;20.10;99.90;;;;;;4992740;28;20440;-77
2023/08/24 03:37:51;;;;;;;1999.90;999.90;;;20.00;99.90;;;;;;4992794;28;20414;-76
2023/08/24 03:40:17;;;;;;;1999.90;999.90;;;19.90;99.90;;;;;;4993043;28;20166;-76
2023/08/24 03:42:42;;;;;;;1999.90;999.90;;;19.90;99.90;;;;;;4991838;28;20401;-76
2023/08/24 03:45:08;;;;;;;1999.90;999.90;;;19.90;99.90;;;;;;4992759;28;20177;-76
2023/08/24 03:47:34;;;;;;;1999.90;999.90;;;19.90;99.90;;;;;;5002307;28;20179;-76
2023/08/24 03:50:00;;;;;;;1999.90;999.90;;;20.00;99.90;;;;;;5004002;28;20454;-76
2023/08/24 03:52:25;;;;;;;1999.90;999.90;;;20.00;99.90;;;;;;5011932;28;20176;-76
2023/08/24 03:54:51;;;;;;;1999.90;999.90;;;20.00;99.90;;;;;;5012221;28;20275;-76
2023/08/24 03:57:16;;;;;;;1999.90;999.90;;;20.10;99.90;;;;;;5012274;28;20178;-75
2023/08/24 03:59:42;;;;;;;1999.90;999.90;;;20.10;99.90;;;;;;5012216;28;20175;-76
2023/08/24 04:02:07;;;;;;;1999.90;999.90;;;20.10;99.90;;;;;;5011959;28;20166;-76
2023/08/24 04:04:33;;;;;;;1999.90;999.90;;;20.10;99.90;;;;;;5012062;28;20207;-76
2023/08/24 04:07:00;;;;;;;1999.90;999.90;;;20.20;99.90;;;;;;5012455;28;20544;-76
2023/08/24 04:09:25;;;;;;;1999.90;999.90;;;20.20;99.90;;;;;;5012180;28;20229;-76
2023/08/24 04:11:51;;;;;;;1999.90;999.90;;;20.20;99.90;;;;;;5012132;28;20409;-76
2023/08/24 04:14:17;;;;;;;1999.90;999.90;;;20.20;99.90;;;;;;5012395;28;20433;-76
2023/08/24 04:16:42;;;;;;;1999.90;999.90;;;20.20;99.90;;;;;;5012090;28;20166;-76
2023/08/24 04:19:08;;;;;;;1999.90;999.90;;;20.10;99.90;;;;;;5012058;28;20574;-76
2023/08/24 04:21:34;;;;;;;1999.90;999.90;;;20.10;99.90;;;;;;5011866;28;20206;-76
2023/08/24 04:24:00;;;;;;;1999.90;999.90;;;20.10;99.90;;;;;;5012275;28;20239;-75
2023/08/24 04:26:25;;;;;;;1999.90;999.90;;;20.20;99.90;;;;;;5012243;28;20484;-76
2023/08/24 04:28:51;;;;;;;1999.90;999.90;;;20.10;99.90;;;;;;5012157;28;20191;-76
2023/08/24 04:31:17;;;;;;;1999.90;999.90;;;20.10;99.90;;;;;;5012129;28;20172;-76
2023/08/24 04:33:42;;;;;;;1999.90;999.90;;;20.10;99.90;;;;;;5012699;28;20711;-76
2023/08/24 04:36:08;;;;;;;1999.90;999.90;;;20.10;99.90;;;;;;5012088;28;20264;-76
2023/08/24 04:38:34;;;;;;;1999.90;999.90;;;20.00;99.90;;;;;;4995716;28;20170;-76
2023/08/24 04:40:59;;;;;;;1999.90;999.90;;;19.90;99.90;;;;;;4992111;28;20169;-76
2023/08/24 04:43:25;;;;;;;1999.90;999.90;;;19.80;99.90;;;;;;4992258;28;20191;-76
2023/08/24 04:45:53;;;;;;;1999.90;999.90;;;19.80;99.90;;;;;;4992455;28;20222;-77
2023/08/24 04:48:23;;;;;;;1999.90;999.90;;;19.70;99.90;;;;;;4992262;28;20503;-76
2023/08/24 04:50:49;;;;;;;1999.90;999.90;;;19.50;99.90;;;;;;4990858;28;20962;-76
2023/08/24 04:53:17;;;;;;;1999.90;999.90;;;19.50;99.90;;;;;;4991972;28;20401;-76
2023/08/24 04:55:43;;;;;;;1999.90;999.90;;;19.50;99.90;;;;;;4995720;28;20829;-76
2023/08/24 04:58:09;;;;;;;1999.90;999.90;;;19.50;99.90;;;;;;4995701;28;20407;-76
2023/08/24 05:00:36;;;;;;;1999.90;999.90;;;19.50;99.90;;;;;;4995557;28;20415;-75
2023/08/24 05:03:05;;;;;;;1999.90;999.90;;;19.50;99.90;;;;;;4995091;28;20448;-76
2023/08/24 05:05:33;;;;;;;1999.90;999.90;;;19.60;99.90;;;;;;4995630;28;20908;-75
2023/08/24 05:07:59;;;;;;;1999.90;999.90;;;19.60;99.90;;;;;;4995520;28;20873;-75
2023/08/24 05:10:25;;;;;;;1999.90;999.90;;;19.60;99.90;;;;;;4995489;28;20445;-76
2023/08/24 05:12:51;;;;;;;1999.90;999.90;;;19.60;99.90;;;;;;4995034;28;20432;-75
2023/08/24 05:15:17;;;;;;;1999.90;999.90;;;19.70;99.90;;;;;;5002637;28;20251;-74
2023/08/24 05:17:43;;;;;;;1999.90;999.90;;;19.70;99.90;;;;;;5010449;28;20311;-75
2023/08/24 05:20:11;;;;;;;1999.90;999.90;;;19.70;99.90;;;;;;5015074;28;20857;-75
2023/08/24 05:22:37;;;;;;;1999.90;999.90;;;19.80;99.90;;;;;;5005696;28;20174;-75
2023/08/24 05:25:04;;;;;;;1999.90;999.90;;;19.80;99.90;;;;;;4995062;28;20806;-75
2023/08/24 05:27:30;;;;;;;1999.90;999.90;;;19.80;99.90;;;;;;4995043;28;20734;-75
2023/08/24 05:29:55;;;;;;;1999.90;999.90;;;19.70;99.90;;;;;;4994848;28;20451;-75
2023/08/24 05:32:21;;;;;;;1999.90;999.90;;;19.70;99.90;;;;;;4994402;28;20166;-75
2023/08/24 05:34:47;;;;;;;1999.90;999.90;;;19.70;99.90;;;;;;4994941;28;20169;-75
2023/08/24 05:37:12;;;;;;;1999.90;999.90;;;19.70;99.90;;;;;;4994870;28;20197;-75
2023/08/24 05:39:38;;;;;;;1999.90;999.90;;;19.70;99.90;;;;;;4995129;28;20174;-75
2023/08/24 05:42:04;;;;;;;1999.90;999.90;;;19.70;99.90;;;;;;4994913;28;20647;-75
2023/08/24 05:44:30;;;;;;;1999.90;999.90;;;19.70;99.90;;;;;;4994645;28;20667;-75
2023/08/24 05:46:55;;;;;;;1999.90;999.90;;;19.70;99.90;;;;;;4994544;28;20461;-75
2023/08/24 05:49:21;;;;;;;1999.90;999.90;;;19.70;99.90;;;;;;4994608;28;20199;-76
2023/08/24 05:51:49;;;;;;;1999.90;999.90;;;19.80;99.90;;;;;;4994381;28;20159;-75
2023/08/24 05:54:18;;;;;;;1999.90;999.90;;;19.80;99.90;;;;;;4994480;28;20203;-76
2023/08/24 05:56:44;;;;;;;1999.90;999.90;;;19.80;99.90;;;;;;4994437;28;20543;-75
2023/08/24 05:59:09;;;;;;;1999.90;999.90;;;19.90;99.90;;;;;;4994482;28;20511;-75
2023/08/24 06:01:38;;;;;;;1999.90;999.90;;;19.90;99.90;;;;;;4994379;28;20588;-76
2023/08/24 06:04:05;;;;;;;1999.90;999.90;;;19.90;99.90;;;;;;4994156;28;20260;-75
2023/08/24 06:06:31;;;;;;;1999.90;999.90;;;20.00;99.90;;;;;;4993417;28;20447;-76
2023/08/24 06:08:56;;;;;;;1999.90;999.90;;;20.00;99.90;;;;;;4994107;28;20440;-76
2023/08/24 06:11:23;;;;;;;1999.90;999.90;;;20.00;99.90;;;;;;4993844;28;20178;-75
2023/08/24 06:13:49;;;;;;;1999.90;999.90;;;20.00;99.90;;;;;;4992821;28;20226;-75
2023/08/24 06:16:15;;;;;;;1999.90;999.90;;;20.00;99.90;;;;;;4994067;28;20398;-75
2023/08/24 06:18:40;;;;;;;1999.90;999.90;;;20.00;99.90;;;;;;4994031;28;20383;-76
2023/08/24 06:21:08;;;;;;;1999.90;999.90;;;20.00;99.90;;;;;;4993759;28;20236;-76
2023/08/24 06:23:33;;;;;;;1999.90;999.90;;;20.10;99.90;;;;;;4993993;28;20632;-76
2023/08/24 06:26:01;;;;;;;1999.90;999.90;;;20.20;99.90;;;;;;4993843;28;20445;-75
2023/08/24 06:28:26;;;;;;;1999.90;999.90;;;20.20;99.90;;;;;;4993918;28;20169;-76
2023/08/24 06:30:54;;;;;;;1999.90;999.90;;;20.40;99.90;;;;;;4993577;28;20848;-75
2023/08/24 06:33:20;;;;;;;1999.90;999.90;;;20.40;99.90;;;;;;4993743;28;20432;-75
2023/08/24 06:35:45;;;;;;;1999.90;999.90;;;20.50;99.90;;;;;;4993894;28;20395;-76
2023/08/24 06:38:11;;;;;;;1999.90;999.90;;;20.60;99.90;;;;;;4993678;28;20256;-76
2023/08/24 06:40:37;;;;;;;1999.90;999.90;;;20.60;99.90;;;;;;4993542;28;20177;-76
2023/08/24 06:43:02;;;;;;;1999.90;999.90;;;20.60;99.90;;;;;;4993363;28;20202;-76
2023/08/24 06:45:28;;;;;;;1999.90;999.90;;;20.70;99.90;;;;;;4992207;28;20180;-76
2023/08/24 06:47:54;;;;;;;1999.90;999.90;;;20.80;99.90;;;;;;4997388;28;20180;-77
2023/08/24 06:50:20;;;;;;;1999.90;999.90;;;20.90;99.90;;;;;;5007521;28;20735;-77
2023/08/24 06:52:46;;;;;;;1999.90;999.90;;;20.90;99.90;;;;;;5006596;28;20444;-77
2023/08/24 06:55:12;;;;;;;1999.90;999.90;;;21.00;99.90;;;;;;5007207;28;20185;-77
2023/08/24 06:57:38;;;;;;;1999.90;999.90;;;21.10;99.90;;;;;;5004336;28;20440;-77
2023/08/24 07:00:12;;;;;;;1999.90;999.90;;;21.10;99.90;;;;;;5003813;28;20172;-77
2023/08/24 07:02:38;;;;;;;1999.90;999.90;;;21.20;99.90;;;;;;5004852;28;20374;-77
2023/08/24 07:05:08;;;;;;;1999.90;999.90;;;21.30;99.90;;;;;;5003940;28;20397;-77
2023/08/24 07:07:34;;;;;;;1999.90;999.90;;;21.40;99.90;;;;;;5004319;28;20689;-76
2023/08/24 07:10:00;;;;;;;1999.90;999.90;;;21.50;99.90;;;;;;5003244;28;20521;-76
2023/08/24 07:12:26;;;;;;;1999.90;999.90;;;21.60;99.90;;;;;;4992020;28;20462;-76
2023/08/24 07:14:52;;;;;;;1999.90;999.90;;;21.60;99.90;;;;;;4992347;28;20894;-76
2023/08/24 07:17:18;;;;;;;1999.90;999.90;;;21.70;99.90;;;;;;4992144;28;20173;-76
2023/08/24 07:19:43;;;;;;;1999.90;999.90;;;21.80;99.90;;;;;;4991003;28;20243;-76
2023/08/24 07:22:09;;;;;;;1999.90;999.90;;;21.90;99.90;;;;;;4991873;28;20411;-76
2023/08/24 07:24:36;;;;;;;1999.90;999.90;;;22.00;99.90;;;;;;4992057;28;20631;-76
2023/08/24 07:27:03;;;;;;;1999.90;999.90;;;22.10;99.90;;;;;;4992149;28;20169;-76
2023/08/24 07:29:29;;;;;;;1999.90;999.90;;;22.20;99.90;;;;;;4992018;28;20438;-76
2023/08/24 07:31:54;;;;;;;1999.90;999.90;;;22.30;99.90;;;;;;4995666;28;20383;-76
2023/08/24 07:34:22;;;;;;;1999.90;999.90;;;22.40;99.90;;;;;;5001039;28;20190;-77
2023/08/24 07:36:48;;;;;;;1999.90;999.90;;;22.50;99.90;;;;;;5000160;28;20161;-76
2023/08/24 07:39:15;;;;;;;1999.90;999.90;;;22.60;99.90;;;;;;5001128;28;20387;-77
2023/08/24 07:41:44;;;;;;;1999.90;999.90;;;22.70;99.90;;;;;;5001442;28;20387;-77
2023/08/24 07:44:09;;;;;;;1999.90;999.90;;;22.80;99.90;;;;;;5000891;28;20439;-77
2023/08/24 07:46:35;;;;;;;1999.90;999.90;;;22.90;99.90;;;;;;5002920;28;20406;-77
2023/08/24 07:49:00;;;;;;;1999.90;999.90;;;23.10;99.90;;;;;;5002722;28;20177;-77
2023/08/24 07:51:26;;;;;;;1999.90;999.90;;;23.10;99.90;;;;;;5000206;28;20185;-77
2023/08/24 07:53:52;;;;;;;1999.90;999.90;;;23.30;99.90;;;;;;4999458;28;20213;-77
2023/08/24 07:56:18;;;;;;;1999.90;999.90;;;23.40;99.90;;;;;;5000262;28;20406;-77
2023/08/24 07:58:44;;;;;;;1999.90;999.90;;;23.50;99.90;;;;;;4999303;28;20596;-76
2023/08/24 08:01:11;;;;;;;1999.90;999.90;;;23.60;99.90;;;;;;4991411;28;20417;-75
2023/08/24 08:03:37;;;;;;;1999.90;999.90;;;23.70;99.90;;;;;;4954990;28;1078261;-76
2023/08/24 08:06:04;;;;;;;1999.90;999.90;;;23.90;99.90;;;;;;4992444;28;20185;-75
2023/08/24 08:08:30;;;;;;;1999.90;999.90;;;24.00;99.90;;;;;;4992478;28;20261;-75
2023/08/24 08:11:00;;;;;;;1999.90;999.90;;;24.10;99.90;;;;;;4992177;28;20529;-76
2023/08/24 08:13:26;;;;;;;1999.90;999.90;;;24.20;99.90;;;;;;4992300;28;20197;-76
2023/08/24 08:15:52;;;;;;;1999.90;999.90;;;24.20;99.90;;;;;;4992429;28;20384;-76
2023/08/24 08:18:17;;;;;;;1999.90;999.90;;;24.30;99.90;;;;;;4992346;28;20392;-76
2023/08/24 08:20:43;;;;;;;1999.90;999.90;;;24.40;99.90;;;;;;4995782;28;20188;-77
2023/08/24 08:23:08;;;;;;;1999.90;999.90;;;24.50;99.90;;;;;;4997923;28;20197;-77
2023/08/24 08:25:34;;;;;;;1999.90;999.90;;;24.70;99.90;;;;;;4998504;28;20170;-77
2023/08/24 08:28:00;;;;;;;1999.90;999.90;;;24.80;99.90;;;;;;5000985;28;20205;-77
2023/08/24 08:30:25;;;;;;;1999.90;999.90;;;24.80;99.90;;;;;;5006094;28;20193;-77
2023/08/24 08:32:52;;;;;;;1999.90;999.90;;;24.90;99.90;;;;;;5003260;28;20196;-77
2023/08/24 08:35:18;;;;;;;1999.90;999.90;;;25.10;99.90;;;;;;5001995;28;20178;-77
2023/08/24 08:37:44;;;;;;;1999.90;999.90;;;25.10;99.90;;;;;;5001977;28;20398;-77
2023/08/24 08:40:11;;;;;;;1999.90;999.90;;;25.20;99.90;;;;;;5001941;28;20408;-78
2023/08/24 08:42:37;;;;;;;1999.90;999.90;;;25.40;99.90;;;;;;5000762;28;20388;-77
2023/08/24 08:45:07;;;;;;;1999.90;999.90;;;25.50;99.90;;;;;;4999688;28;20827;-77
2023/08/24 08:47:33;;;;;;;1999.90;999.90;;;25.60;99.90;;;;;;4995985;28;20410;-77
2023/08/24 08:50:02;;;;;;;1999.90;999.90;;;25.80;99.90;;;;;;4999317;28;20963;-78
2023/08/24 08:52:28;;;;;;;1999.90;999.90;;;25.90;99.90;;;;;;5000149;28;20224;-78
2023/08/24 08:54:54;;;;;;;1999.90;999.90;;;26.10;99.90;;;;;;5000599;28;20392;-78
2023/08/24 08:57:22;;;;;;;1999.90;999.90;;;26.40;99.90;;;;;;5000614;28;20180;-78
2023/08/24 08:59:50;;;;;;;1999.90;999.90;;;26.60;99.90;;;;;;5000943;28;20177;-78
2023/08/24 09:02:19;;;;;;;1999.90;999.90;;;26.70;99.90;;;;;;5000623;28;20391;-78
2023/08/24 09:04:45;;;;;;;1999.90;999.90;;;26.80;99.90;;;;;;4996341;28;20566;-77
2023/08/24 09:07:14;;;;;;;1999.90;999.90;;;27.00;99.90;;;;;;4998486;28;20451;-77
2023/08/24 09:09:40;;;;;;;1999.90;999.90;;;27.10;99.90;;;;;;4995365;28;20459;-77
2023/08/24 09:12:06;;;;;;;1999.90;999.90;;;27.20;99.90;;;;;;4995098;28;20412;-77
2023/08/24 09:14:33;;;;;;;1999.90;999.90;;;27.40;99.90;;;;;;4995257;28;20425;-77
2023/08/24 09:16:58;;;;;;;1999.90;999.90;;;27.50;99.90;;;;;;4995267;28;20383;-77
2023/08/24 09:19:31;;;;;;;1999.90;999.90;;;27.70;99.90;;;;;;4995387;28;20409;-76
2023/08/24 09:22:01;;;;;;;1999.90;999.90;;;27.80;99.90;;;;;;4994955;28;20201;-77
2023/08/24 09:24:34;;;;;;;1999.90;999.90;;;28.00;99.90;;;;;;4995091;28;20424;-76
2023/08/24 09:27:13;;;;;;;1999.90;999.90;;;28.10;99.90;;;;;;4995053;28;20809;-77
2023/08/24 09:29:39;;;;;;;1999.90;999.90;;;28.10;99.90;;;;;;4995024;28;20452;-77
2023/08/24 09:32:08;;;;;;;1999.90;999.90;;;28.20;99.90;;;;;;4994766;28;20457;-77
2023/08/24 09:34:33;;;;;;;1999.90;999.90;;;28.30;99.90;;;;;;4994846;28;20574;-77
2023/08/24 09:36:59;;;;;;;1999.90;999.90;;;28.30;99.90;;;;;;4994876;28;20397;-77
2023/08/24 09:39:24;;;;;;;1999.90;999.90;;;28.30;99.90;;;;;;4994658;28;20173;-77
2023/08/24 09:41:51;;;;;;;1999.90;999.90;;;28.30;99.90;;;;;;4993318;28;20176;-77
2023/08/24 09:44:19;;;;;;;1999.90;999.90;;;28.40;99.90;;;;;;4994742;28;20280;-77
2023/08/24 09:46:45;;;;;;;1999.90;999.90;;;28.60;99.90;;;;;;4994705;28;20416;-77
2023/08/24 09:49:12;;;;;;;1999.90;999.90;;;28.70;99.90;;;;;;4994774;28;20405;-77
2023/08/24 09:51:39;;;;;;;1999.90;999.90;;;28.90;99.90;;;;;;4994337;28;20536;-77
2023/08/24 09:54:08;;;;;;;1999.90;999.90;;;28.90;99.90;;;;;;5003322;28;20443;-77
2023/08/24 09:56:37;;;;;;;1999.90;999.90;;;29.00;99.90;;;;;;5013499;28;20420;-75
2023/08/24 09:59:21;;;;;;;1999.90;999.90;;;29.10;99.90;;;;;;5013111;28;20404;-76
2023/08/24 10:01:48;;;;;;;1999.90;999.90;;;29.30;99.90;;;;;;5012194;28;20475;-77
2023/08/24 10:04:25;;;;;;;1999.90;999.90;;;29.40;98.20;;;;;;5012441;28;20448;-77
2023/08/24 10:06:57;;;;;;;1999.90;999.90;;;29.30;99.10;;;;;;5013763;28;20402;-76
2023/08/24 10:09:27;;;;;;;1999.90;999.90;;;29.30;98.80;;;;;;5012860;28;20455;-77
2023/08/24 10:12:00;;;;;;;1999.90;999.90;;;29.40;97.80;;;;;;5012945;28;20825;-77
2023/08/24 10:14:32;;;;;;;1999.90;999.90;;;29.40;98.00;;;;;;5012559;28;20424;-77
2023/08/24 10:16:58;;;;;;;1999.90;999.90;;;29.40;97.10;;;;;;5012290;28;20431;-77
2023/08/24 10:19:31;;;;;;;1999.90;999.90;;;29.40;97.20;;;;;;5011719;28;20420;-75
2023/08/24 10:22:00;;;;;;;1999.90;999.90;;;29.40;96.90;;;;;;5008644;28;20412;-74
2023/08/24 10:24:26;;;;;;;1999.90;999.90;;;29.40;97.10;;;;;;5008666;28;20887;-73
2023/08/24 10:26:54;;;;;;;1999.90;999.90;;;29.50;97.30;;;;;;5012168;28;20459;-71
2023/08/24 10:29:20;;;;;;;1999.90;999.90;;;29.50;94.90;;;;;;5014811;28;20219;-72
2023/08/24 10:31:48;;;;;;;1999.90;999.90;;;29.60;96.50;;;;;;5013375;28;20378;-73
2023/08/24 10:34:14;;;;;;;1999.90;999.90;;;29.70;98.30;;;;;;4991297;28;20840;-75
2023/08/24 10:36:41;;;;;;;1999.90;999.90;;;29.80;98.50;;;;;;4990515;28;20412;-74
2023/08/24 10:39:07;;;;;;;1999.90;999.90;;;29.90;97.90;;;;;;5006737;28;20303;-75
2023/08/24 10:41:52;;;;;;;1999.90;999.90;;;30.00;97.40;;;;;;5008677;28;20408;-72
2023/08/24 10:44:34;;;;;;;1999.90;999.90;;;30.20;97.50;;;;;;5008783;28;20438;-74
2023/08/24 10:47:14;;;;;;;1999.90;999.90;;;30.20;96.60;;;;;;4997749;28;20409;-74
2023/08/24 10:49:40;;;;;;;1999.90;999.90;;;30.20;98.10;;;;;;4990282;28;20453;-75
2023/08/24 10:52:29;;;;;;;1999.90;999.90;;;30.30;97.70;;;;;;4988113;28;20449;-76
2023/08/24 10:54:55;;;;;;;1999.90;999.90;;;30.30;96.20;;;;;;4989086;28;20416;-76
2023/08/24 10:57:27;;;;;;;1999.90;999.90;;;30.20;95.80;;;;;;4988230;28;20417;-75
2023/08/24 11:00:05;;;;;;;1999.90;999.90;;;30.10;94.30;;;;;;4989324;28;20182;-75
2023/08/24 11:02:48;;;;;;;1999.90;999.90;;;30.00;94.10;;;;;;4988601;28;20427;-76
2023/08/24 11:05:24;;;;;;;1999.90;999.90;;;29.90;94.60;;;;;;4988509;28;20451;-75
2023/08/24 11:07:51;;;;;;;1999.90;999.90;;;29.80;94.80;;;;;;4994722;28;20867;-75
2023/08/24 11:10:18;;;;;;;1999.90;999.90;;;29.70;95.90;;;;;;5008474;28;20526;-74
2023/08/24 11:13:07;;;;;;;1999.90;999.90;;;29.70;96.80;;;;;;4992156;28;20425;-75
2023/08/24 11:15:44;;;;;;;1999.90;999.90;;;29.80;97.80;;;;;;4992735;28;20452;-74
2023/08/24 11:18:13;;;;;;;1999.90;999.90;;;29.80;97.90;;;;;;4988582;28;20420;-72
2023/08/24 11:20:44;;;;;;;1999.90;999.90;;;29.70;95.90;;;;;;4989058;28;20902;-75
2023/08/24 11:23:10;;;;;;;1999.90;999.90;;;29.70;95.20;;;;;;5003137;28;20436;-75
2023/08/24 11:25:36;;;;;;;1999.90;999.90;;;29.60;94.40;;;;;;4988106;28;20426;-75
2023/08/24 11:28:03;;;;;;;1999.90;999.90;;;29.40;94.00;;;;;;4988298;28;20181;-72
2023/08/24 11:30:33;;;;;;;1999.90;999.90;;;29.30;93.40;;;;;;5001410;28;20458;-74
2023/08/24 11:32:59;;;;;;;1999.90;999.90;;;29.20;91.50;;;;;;4995661;28;20424;-75
2023/08/24 11:35:25;;;;;;;1999.90;999.90;;;29.10;90.70;;;;;;4987643;28;20428;-75
2023/08/24 11:37:53;;;;;;;1999.90;999.90;;;29.10;92.90;;;;;;4988758;28;20416;-75
2023/08/24 11:40:20;;;;;;;1999.90;999.90;;;29.10;92.10;;;;;;4988094;28;20876;-75
2023/08/24 11:42:46;;;;;;;1999.90;999.90;;;29.00;93.70;;;;;;4986819;28;20510;-75
2023/08/24 11:45:13;;;;;;;1999.90;999.90;;;28.80;94.90;;;;;;5004257;28;20423;-75
2023/08/24 11:47:38;;;;;;;1999.90;999.90;;;28.80;93.60;;;;;;4990782;28;20470;-75
2023/08/24 11:50:05;;;;;;;1999.90;999.90;;;28.80;94.30;;;;;;4987130;28;20460;-75
2023/08/24 11:52:32;;;;;;;1999.90;999.90;;;28.70;94.10;;;;;;4987705;28;20778;-75
2023/08/24 11:55:00;;;;;;;1999.90;999.90;;;28.60;92.60;;;;;;4988147;28;20405;-75
2023/08/24 11:57:27;;;;;;;1999.90;999.90;;;28.50;95.20;;;;;;4987495;28;20784;-73
2023/08/24 11:59:54;;;;;;;1999.90;999.90;;;28.10;99.90;;;;;;4988081;28;20413;-73